Indian Creek, Louisiana
Current Conditions -  °F | °C
As of 5:29 AM on Saturday 25 Oct 2014 (Local Time) from KAEX Reporting Station
Haze Haze  
Wind Chill: 47°   Ceiling: 200
Heat Index: 47°   Visibility: 0.75mi
Dew Point: 47°   Wind: 0mph
Humidity: 100%   Direction: NA
Pressure: 30.12"   Gusts: NA
Location:  31.1516°N, 92.535°W
Report Text: KAEX 251029Z 00000KT 3/4SM BR VV002 08/08 A3012 RMK AO2 T00830083 $
Loading
Personal Weather Stations






























Interactive Weather Map
Tropical Storm Tracking
New forecast layout! Learn more

10-Day Weather Forecast

Advertisements
Track Severe Weather on mobile